createdAt,value
2022-10-09T00:00:12.877Z,19.40
2022-10-09T00:02:39.535Z,19.30
2022-10-09T00:05:06.403Z,19.50
2022-10-09T00:07:33.148Z,19.30
2022-10-09T00:09:59.815Z,19.30
2022-10-09T00:12:26.437Z,19.30
2022-10-09T00:14:53.089Z,19.30
2022-10-09T00:17:19.708Z,19.30
2022-10-09T00:19:46.364Z,19.30
2022-10-09T00:22:13.139Z,19.30
2022-10-09T00:24:39.798Z,19.40
2022-10-09T00:27:06.420Z,19.50
2022-10-09T00:29:33.028Z,19.60
2022-10-09T00:31:59.671Z,19.60
2022-10-09T00:34:26.280Z,19.70
2022-10-09T00:36:52.919Z,19.80
2022-10-09T00:39:19.755Z,19.80
2022-10-09T00:41:46.376Z,19.80
2022-10-09T00:44:31.936Z,19.80
2022-10-09T00:46:58.928Z,19.80
2022-10-09T00:49:27.790Z,19.80
2022-10-09T00:51:55.185Z,19.70
2022-10-09T00:54:24.116Z,19.70
2022-10-09T00:56:50.928Z,19.70
2022-10-09T00:59:18.128Z,19.90
2022-10-09T01:01:45.159Z,19.70
2022-10-09T01:04:12.189Z,19.60
2022-10-09T01:06:53.175Z,19.70
2022-10-09T01:09:22.867Z,19.60
2022-10-09T01:11:58.584Z,19.90
2022-10-09T01:14:30.121Z,19.60
2022-10-09T01:17:01.171Z,19.60
2022-10-09T01:19:35.664Z,19.60
2022-10-09T01:22:08.303Z,19.60
2022-10-09T01:24:39.025Z,19.50
2022-10-09T01:27:05.701Z,19.50
2022-10-09T01:29:34.922Z,19.50
2022-10-09T01:32:02.178Z,19.50
2022-10-09T01:34:29.745Z,19.50
2022-10-09T01:36:57.110Z,19.50
2022-10-09T01:39:23.999Z,19.50
2022-10-09T01:41:52.080Z,19.50
2022-10-09T01:44:26.379Z,19.50
2022-10-09T01:46:53.216Z,19.50
2022-10-09T01:49:27.859Z,19.50
2022-10-09T01:51:59.855Z,19.50
2022-10-09T01:54:46.751Z,19.50
2022-10-09T01:57:14.081Z,19.50
2022-10-09T01:59:42.639Z,19.50
2022-10-09T02:02:10.335Z,19.50
2022-10-09T02:04:38.782Z,19.40
2022-10-09T02:07:06.065Z,20.00
2022-10-09T02:09:33.564Z,19.40
2022-10-09T02:12:01.392Z,19.90
2022-10-09T02:14:28.073Z,19.40
2022-10-09T02:17:24.118Z,19.40
2022-10-09T02:19:52.203Z,19.40
2022-10-09T02:22:21.371Z,19.40
2022-10-09T02:24:48.134Z,19.70
2022-10-09T02:27:15.675Z,19.40
2022-10-09T02:29:43.578Z,19.40
2022-10-09T02:32:10.244Z,19.40
2022-10-09T02:34:37.038Z,19.40
2022-10-09T02:37:04.003Z,19.40
2022-10-09T02:39:30.662Z,20.00
2022-10-09T02:41:57.308Z,19.40
2022-10-09T02:44:24.004Z,19.40
2022-10-09T02:46:50.816Z,19.40
2022-10-09T02:49:17.575Z,19.30
2022-10-09T02:51:44.231Z,19.30
2022-10-09T02:54:10.951Z,19.30
2022-10-09T02:56:39.113Z,19.30
2022-10-09T02:59:06.411Z,19.50
2022-10-09T03:01:33.162Z,19.30
2022-10-09T03:03:59.875Z,19.30
2022-10-09T03:06:27.283Z,19.40
2022-10-09T03:08:54.601Z,19.30
2022-10-09T03:11:22.237Z,19.30
2022-10-09T03:13:49.207Z,19.30
2022-10-09T03:16:17.844Z,19.30
2022-10-09T03:18:44.716Z,19.30
2022-10-09T03:21:13.102Z,19.30
2022-10-09T03:23:40.544Z,19.30
2022-10-09T03:26:11.658Z,19.30
2022-10-09T03:28:39.266Z,19.30
2022-10-09T03:31:06.255Z,19.30
2022-10-09T03:33:33.652Z,19.30
2022-10-09T03:36:00.345Z,19.30
2022-10-09T03:38:27.354Z,19.30
2022-10-09T03:40:54.049Z,19.20
2022-10-09T03:43:20.740Z,19.30
2022-10-09T03:45:47.359Z,19.30
2022-10-09T03:48:14.053Z,19.20
2022-10-09T03:50:41.040Z,19.20
2022-10-09T03:53:09.279Z,19.30
2022-10-09T03:55:36.047Z,19.30
2022-10-09T03:58:02.710Z,19.40
2022-10-09T04:00:29.454Z,19.40
2022-10-09T04:02:56.163Z,19.40
2022-10-09T04:05:23.165Z,19.40
2022-10-09T04:07:49.781Z,19.40
2022-10-09T04:10:16.733Z,19.40
2022-10-09T04:12:43.515Z,19.50
2022-10-09T04:15:10.626Z,19.80
2022-10-09T04:17:37.276Z,19.50
2022-10-09T04:20:04.111Z,19.50
2022-10-09T04:22:30.770Z,19.50
2022-10-09T04:24:57.415Z,19.40
2022-10-09T04:27:24.078Z,19.50
2022-10-09T04:29:50.743Z,19.40
2022-10-09T04:32:17.451Z,19.40
2022-10-09T04:34:44.100Z,19.40
2022-10-09T04:37:10.731Z,19.50
2022-10-09T04:39:37.479Z,19.60
2022-10-09T04:42:04.261Z,19.50
2022-10-09T04:44:30.932Z,19.50
2022-10-09T04:46:57.632Z,19.50
2022-10-09T04:49:24.277Z,19.50
2022-10-09T04:51:50.872Z,19.50
2022-10-09T04:54:17.500Z,19.50
2022-10-09T04:56:44.196Z,19.50
2022-10-09T04:59:10.861Z,19.60
2022-10-09T05:01:38.700Z,19.60
2022-10-09T05:04:05.480Z,19.60
2022-10-09T05:06:32.277Z,19.50
2022-10-09T05:08:58.962Z,19.50
2022-10-09T05:11:25.879Z,19.50
2022-10-09T05:13:54.088Z,19.50
2022-10-09T05:16:24.909Z,19.50
2022-10-09T05:18:53.085Z,19.50
2022-10-09T05:21:20.315Z,19.50
2022-10-09T05:23:47.550Z,20.00
2022-10-09T05:26:15.347Z,19.50
2022-10-09T05:28:42.269Z,19.80
2022-10-09T05:31:09.482Z,19.40
2022-10-09T05:33:36.277Z,19.40
2022-10-09T05:36:04.938Z,19.50
2022-10-09T05:38:32.692Z,19.50
2022-10-09T05:41:00.655Z,19.50
2022-10-09T05:43:28.691Z,19.50
2022-10-09T05:45:55.366Z,19.60
2022-10-09T05:48:22.167Z,19.60
2022-10-09T05:50:48.836Z,19.60
2022-10-09T05:53:15.487Z,19.50
2022-10-09T05:55:42.418Z,19.50
2022-10-09T05:58:09.048Z,19.50
2022-10-09T06:00:35.653Z,19.50
2022-10-09T06:03:02.704Z,19.70
2022-10-09T06:05:30.373Z,19.60
2022-10-09T06:07:57.122Z,19.50
2022-10-09T06:10:23.774Z,19.60
2022-10-09T06:12:50.663Z,20.10
2022-10-09T06:15:17.653Z,19.50
2022-10-09T06:17:44.279Z,19.50
2022-10-09T06:20:10.945Z,19.50
2022-10-09T06:22:37.598Z,20.00
2022-10-09T06:25:04.580Z,19.70
2022-10-09T06:27:31.204Z,19.50
2022-10-09T06:29:58.291Z,19.50
2022-10-09T06:32:24.970Z,19.50
2022-10-09T06:34:52.987Z,19.80
2022-10-09T06:37:19.780Z,19.50
2022-10-09T06:39:46.461Z,19.50
2022-10-09T06:42:13.130Z,19.50
2022-10-09T06:44:39.901Z,19.50
2022-10-09T06:47:06.590Z,19.50
2022-10-09T06:49:33.302Z,19.50
2022-10-09T06:51:59.993Z,19.50
2022-10-09T06:54:26.682Z,19.50
2022-10-09T06:56:54.052Z,19.50
2022-10-09T06:59:20.714Z,19.60
2022-10-09T07:01:47.514Z,19.30
2022-10-09T07:04:14.543Z,19.50
2022-10-09T07:06:42.925Z,19.50
2022-10-09T07:09:10.947Z,19.50
2022-10-09T07:11:43.230Z,19.50
2022-10-09T07:14:10.951Z,19.50
2022-10-09T07:16:39.301Z,19.60
2022-10-09T07:19:11.258Z,19.50
2022-10-09T07:21:39.261Z,19.60
2022-10-09T07:24:06.076Z,19.50
2022-10-09T07:26:34.301Z,19.50
2022-10-09T07:29:01.542Z,19.60
2022-10-09T07:31:28.328Z,19.50
2022-10-09T07:33:56.605Z,19.70
2022-10-09T07:36:23.383Z,19.50
2022-10-09T07:38:50.835Z,20.00
2022-10-09T07:41:17.512Z,19.90
2022-10-09T07:43:44.244Z,20.00
2022-10-09T07:46:12.129Z,19.50
2022-10-09T07:48:39.212Z,19.50
2022-10-09T07:51:10.359Z,19.50
2022-10-09T07:53:38.042Z,19.50
2022-10-09T07:56:05.248Z,19.50
2022-10-09T07:58:32.023Z,19.50
2022-10-09T08:01:08.365Z,19.70
2022-10-09T08:03:35.494Z,19.50
2022-10-09T08:06:02.215Z,19.60
2022-10-09T08:08:28.869Z,19.60
2022-10-09T08:10:55.563Z,19.60
2022-10-09T08:13:22.233Z,19.60
2022-10-09T08:15:48.920Z,19.60
2022-10-09T08:18:15.669Z,19.60
2022-10-09T08:20:42.309Z,19.60
2022-10-09T08:23:08.932Z,19.60
2022-10-09T08:25:36.512Z,19.60
2022-10-09T08:28:03.860Z,19.70
2022-10-09T08:30:30.620Z,19.70
2022-10-09T08:32:57.236Z,19.70
2022-10-09T08:35:24.055Z,19.60
2022-10-09T08:37:50.719Z,19.70
2022-10-09T08:40:24.819Z,19.70
2022-10-09T08:43:00.541Z,19.70
2022-10-09T08:45:27.404Z,19.70
2022-10-09T08:47:57.879Z,19.70
2022-10-09T08:50:29.234Z,19.70
2022-10-09T08:53:02.190Z,19.60
2022-10-09T08:55:31.391Z,19.60
2022-10-09T08:58:01.771Z,19.70
2022-10-09T09:00:31.621Z,19.60
2022-10-09T09:03:04.411Z,19.70
2022-10-09T09:05:45.109Z,19.60
2022-10-09T09:08:12.063Z,19.60
2022-10-09T09:10:43.631Z,19.60
2022-10-09T09:13:26.903Z,19.70
2022-10-09T09:16:23.148Z,19.70
2022-10-09T09:18:55.823Z,19.70
2022-10-09T09:21:42.743Z,19.70
2022-10-09T09:24:13.934Z,19.70
2022-10-09T09:26:42.816Z,19.60
2022-10-09T09:29:12.056Z,19.60
2022-10-09T09:31:40.230Z,19.70
2022-10-09T09:34:12.542Z,19.60
2022-10-09T09:36:41.163Z,19.70
2022-10-09T09:40:07.831Z,20.20
2022-10-09T09:42:17.602Z,19.60
2022-10-09T09:44:50.256Z,19.60
2022-10-09T09:47:26.750Z,19.60
2022-10-09T09:49:58.808Z,19.60
2022-10-09T09:52:28.161Z,19.60
2022-10-09T09:54:55.944Z,19.60
2022-10-09T09:57:29.262Z,19.60
2022-10-09T10:00:05.879Z,19.70
2022-10-09T10:02:32.539Z,19.70
2022-10-09T10:05:01.104Z,19.70
2022-10-09T10:07:35.311Z,19.60
2022-10-09T10:10:19.745Z,19.60
2022-10-09T10:12:58.134Z,19.60
2022-10-09T10:15:26.593Z,19.60
2022-10-09T10:18:03.192Z,20.10
2022-10-09T10:20:30.825Z,19.60
2022-10-09T10:22:58.420Z,19.60
2022-10-09T10:25:28.524Z,19.70
2022-10-09T10:28:01.825Z,19.70
2022-10-09T10:30:28.592Z,19.70
2022-10-09T10:33:01.406Z,19.60
2022-10-09T10:35:33.817Z,19.60
2022-10-09T10:38:13.259Z,19.60
2022-10-09T10:40:45.806Z,19.60
2022-10-09T10:43:14.938Z,19.70
2022-10-09T10:45:48.805Z,19.80
2022-10-09T10:48:25.223Z,19.90
2022-10-09T10:50:58.111Z,20.00
2022-10-09T10:53:36.978Z,20.00
2022-10-09T10:56:06.059Z,20.00
2022-10-09T10:58:54.370Z,20.50
2022-10-09T11:01:53.543Z,20.00
2022-10-09T11:04:21.323Z,19.90
2022-10-09T11:06:57.166Z,19.90
2022-10-09T11:09:49.767Z,19.90
2022-10-09T11:12:43.242Z,19.80
2022-10-09T11:15:17.057Z,19.90
2022-10-09T11:18:02.632Z,19.90
2022-10-09T11:20:31.974Z,19.90
2022-10-09T11:23:08.489Z,19.90
2022-10-09T11:25:46.067Z,19.80
2022-10-09T11:28:18.111Z,19.80
2022-10-09T11:31:11.121Z,19.80
2022-10-09T11:33:46.899Z,19.80
2022-10-09T11:36:32.224Z,19.80
2022-10-09T11:39:00.611Z,19.80
2022-10-09T11:41:27.770Z,19.90
2022-10-09T11:44:13.148Z,19.80
2022-10-09T11:46:39.779Z,19.80
2022-10-09T11:49:16.575Z,19.80
2022-10-09T11:52:02.110Z,19.80
2022-10-09T11:54:29.051Z,19.80
2022-10-09T11:57:00.111Z,19.80
2022-10-09T11:59:31.203Z,19.80
2022-10-09T12:02:01.671Z,19.70
2022-10-09T12:04:55.622Z,19.80
2022-10-09T12:07:26.306Z,19.90
2022-10-09T12:09:57.043Z,19.80
2022-10-09T12:12:23.763Z,19.80
2022-10-09T12:14:51.521Z,19.80
2022-10-09T12:17:34.202Z,19.80
2022-10-09T12:20:20.703Z,19.80
2022-10-09T12:23:07.376Z,19.80
2022-10-09T12:25:40.866Z,19.80
2022-10-09T12:28:14.302Z,19.70
2022-10-09T12:30:47.413Z,19.70
2022-10-09T12:33:14.298Z,19.80
2022-10-09T12:35:43.167Z,19.80
2022-10-09T12:38:36.203Z,19.80
2022-10-09T12:41:04.054Z,19.80
2022-10-09T12:43:31.999Z,19.80
2022-10-09T12:45:59.153Z,20.20
2022-10-09T12:48:26.789Z,19.70
2022-10-09T12:50:54.771Z,20.00
2022-10-09T12:53:22.943Z,19.70
2022-10-09T12:55:51.036Z,19.70
2022-10-09T12:58:20.767Z,20.00
2022-10-09T13:00:48.670Z,19.70
2022-10-09T13:03:23.210Z,19.70
2022-10-09T13:05:50.032Z,19.70
2022-10-09T13:08:36.722Z,19.70
2022-10-09T13:11:12.626Z,19.80
2022-10-09T13:13:39.755Z,19.70
2022-10-09T13:16:09.302Z,19.80
2022-10-09T13:18:39.285Z,19.70
2022-10-09T13:21:17.907Z,19.70
2022-10-09T13:23:44.574Z,19.70
2022-10-09T13:26:16.899Z,19.70
2022-10-09T13:28:43.796Z,19.70
2022-10-09T13:31:11.874Z,19.70
2022-10-09T13:33:38.603Z,19.80
2022-10-09T13:36:05.392Z,19.80
2022-10-09T13:38:34.973Z,19.70
2022-10-09T13:41:02.273Z,20.20
2022-10-09T13:43:31.062Z,19.70
2022-10-09T13:45:58.034Z,19.70
2022-10-09T13:48:25.820Z,19.70
2022-10-09T13:50:52.465Z,19.70
2022-10-09T13:53:19.123Z,19.70
2022-10-09T13:55:45.767Z,20.60
2022-10-09T13:58:12.413Z,19.80
2022-10-09T14:00:39.237Z,19.80
2022-10-09T14:03:05.954Z,19.80
2022-10-09T14:05:32.600Z,19.70
2022-10-09T14:07:59.228Z,19.80
2022-10-09T14:10:26.839Z,19.70
2022-10-09T14:12:53.458Z,19.70
2022-10-09T14:15:20.178Z,19.70
2022-10-09T14:17:47.193Z,19.70
2022-10-09T14:20:14.135Z,19.70
2022-10-09T14:22:40.807Z,19.80
2022-10-09T14:25:07.800Z,19.70
2022-10-09T14:30:06.353Z,19.80
2022-10-09T14:32:33.074Z,19.80
2022-10-09T14:34:59.760Z,19.80
2022-10-09T14:37:42.529Z,19.80
2022-10-09T14:40:10.296Z,19.70
2022-10-09T14:42:37.877Z,19.70
2022-10-09T14:45:05.005Z,19.80
2022-10-09T14:47:31.700Z,19.80
2022-10-09T14:49:58.533Z,19.80
2022-10-09T14:52:25.208Z,19.80
2022-10-09T14:54:51.818Z,19.80
2022-10-09T14:57:18.569Z,20.40
2022-10-09T14:59:45.224Z,19.80
2022-10-09T15:02:14.347Z,19.80
2022-10-09T15:04:40.999Z,20.00
2022-10-09T15:07:07.814Z,19.80
2022-10-09T15:09:34.539Z,19.80
2022-10-09T15:12:01.236Z,19.80
2022-10-09T15:14:28.099Z,19.80
2022-10-09T15:16:54.840Z,19.80
2022-10-09T15:19:21.536Z,19.80
2022-10-09T15:21:48.195Z,20.40
2022-10-09T15:24:17.027Z,19.80
2022-10-09T15:26:43.707Z,19.80
2022-10-09T15:29:11.021Z,19.80
2022-10-09T15:31:38.693Z,19.70
2022-10-09T15:34:07.513Z,20.20
2022-10-09T15:36:35.499Z,19.80
2022-10-09T15:39:05.750Z,20.20
2022-10-09T15:41:33.956Z,19.80
2022-10-09T15:44:01.944Z,20.40
2022-10-09T15:46:28.726Z,19.80
2022-10-09T15:48:55.575Z,19.80
2022-10-09T15:51:22.701Z,19.80
2022-10-09T15:53:50.324Z,19.80
2022-10-09T15:56:19.988Z,19.80
2022-10-09T15:58:46.790Z,19.80
2022-10-09T16:01:14.574Z,19.80
2022-10-09T16:03:41.535Z,20.50
2022-10-09T16:06:09.913Z,19.80
2022-10-09T16:08:36.873Z,19.80
2022-10-09T16:11:06.115Z,20.20
2022-10-09T16:13:35.103Z,19.80
2022-10-09T16:16:04.193Z,19.80
2022-10-09T16:18:31.001Z,19.80
2022-10-09T16:21:02.996Z,19.80
2022-10-09T16:23:29.594Z,19.80
2022-10-09T16:25:57.141Z,19.80
2022-10-09T16:28:24.199Z,19.80
2022-10-09T16:30:50.899Z,19.80
2022-10-09T16:33:17.647Z,20.90
2022-10-09T16:35:44.416Z,19.80
2022-10-09T16:38:11.055Z,19.80
2022-10-09T16:41:01.715Z,19.80
2022-10-09T16:43:28.988Z,19.90
2022-10-09T16:45:55.648Z,19.60
2022-10-09T16:48:22.280Z,19.60
2022-10-09T16:50:48.882Z,19.60
2022-10-09T16:53:15.612Z,20.10
2022-10-09T16:55:42.294Z,19.60
2022-10-09T16:58:08.952Z,19.60
2022-10-09T17:00:35.620Z,19.70
2022-10-09T17:03:02.326Z,19.80
2022-10-09T17:05:29.001Z,19.80
2022-10-09T17:07:55.673Z,19.80
2022-10-09T17:10:22.311Z,19.70
2022-10-09T17:12:49.034Z,19.80
2022-10-09T17:15:15.756Z,19.80
2022-10-09T17:17:42.423Z,19.80
2022-10-09T17:20:09.209Z,19.80
2022-10-09T17:22:35.986Z,19.80
2022-10-09T17:25:02.671Z,19.80
2022-10-09T17:27:29.318Z,19.80
2022-10-09T17:29:55.951Z,19.80
2022-10-09T17:32:22.717Z,19.70
2022-10-09T17:34:50.497Z,19.70
2022-10-09T17:37:17.119Z,19.70
2022-10-09T17:39:47.481Z,19.70
2022-10-09T17:42:16.555Z,19.70
2022-10-09T17:44:43.220Z,19.70
2022-10-09T17:47:09.925Z,19.70
2022-10-09T17:49:36.565Z,19.70
2022-10-09T17:52:03.378Z,19.70
2022-10-09T17:54:29.998Z,19.70
2022-10-09T17:56:56.744Z,19.70
2022-10-09T17:59:23.379Z,19.70
2022-10-09T18:01:50.094Z,19.80
2022-10-09T18:04:16.965Z,19.70
2022-10-09T18:06:44.080Z,19.80
2022-10-09T18:09:10.830Z,19.80
2022-10-09T18:11:37.522Z,19.80
2022-10-09T18:14:04.294Z,19.90
2022-10-09T18:16:35.798Z,20.00
2022-10-09T18:19:07.769Z,20.00
2022-10-09T18:21:35.239Z,20.00
2022-10-09T18:24:01.933Z,20.00
2022-10-09T18:26:28.748Z,20.10
2022-10-09T18:28:55.748Z,20.00
2022-10-09T18:31:23.832Z,19.90
2022-10-09T18:33:50.947Z,20.50
2022-10-09T18:36:22.713Z,19.90
2022-10-09T18:38:50.931Z,19.80
2022-10-09T18:41:18.304Z,19.90
2022-10-09T18:43:45.380Z,19.90
2022-10-09T18:46:12.429Z,19.90
2022-10-09T18:48:40.063Z,19.90
2022-10-09T18:51:09.045Z,19.90
2022-10-09T18:53:36.617Z,19.60
2022-10-09T18:56:03.703Z,19.50
2022-10-09T18:58:30.375Z,19.60
2022-10-09T19:00:57.083Z,19.60
2022-10-09T19:03:23.777Z,19.60
2022-10-09T19:05:50.378Z,19.70
2022-10-09T19:08:17.064Z,19.80
2022-10-09T19:10:49.068Z,19.70
2022-10-09T19:13:15.813Z,19.70
2022-10-09T19:15:42.486Z,19.70
2022-10-09T19:18:09.388Z,19.70
2022-10-09T19:20:38.487Z,19.70
2022-10-09T19:23:05.107Z,19.70
2022-10-09T19:25:31.790Z,19.70
2022-10-09T19:27:58.477Z,19.70
2022-10-09T19:30:25.154Z,19.70
2022-10-09T19:32:52.955Z,19.80
2022-10-09T19:35:19.677Z,19.70
2022-10-09T19:37:46.370Z,19.90
2022-10-09T19:40:12.982Z,19.80
2022-10-09T19:42:39.683Z,19.80
2022-10-09T19:45:06.771Z,19.80
2022-10-09T19:47:33.472Z,19.80
2022-10-09T19:50:00.359Z,19.90
2022-10-09T19:52:27.010Z,20.30
2022-10-09T19:54:54.210Z,19.70
2022-10-09T19:57:20.828Z,19.70
2022-10-09T19:59:47.978Z,19.70
2022-10-09T20:02:14.589Z,19.70
2022-10-09T20:04:41.199Z,19.60
2022-10-09T20:07:12.326Z,19.90
2022-10-09T20:09:39.503Z,19.60
2022-10-09T20:12:08.005Z,19.60
2022-10-09T20:14:34.626Z,19.60
2022-10-09T20:17:01.696Z,19.60
2022-10-09T20:19:31.532Z,19.60
2022-10-09T20:21:58.264Z,19.60
2022-10-09T20:24:24.878Z,19.50
2022-10-09T20:26:51.523Z,19.70
2022-10-09T20:29:18.188Z,19.50
2022-10-09T20:31:44.907Z,19.50
2022-10-09T20:34:11.659Z,19.50
2022-10-09T20:36:39.218Z,19.50
2022-10-09T20:39:07.237Z,19.90
2022-10-09T20:41:34.017Z,19.50
2022-10-09T20:44:01.711Z,19.50
2022-10-09T20:46:29.169Z,19.40
2022-10-09T20:48:56.080Z,19.50
2022-10-09T20:51:22.936Z,19.40
2022-10-09T20:53:55.953Z,19.40
2022-10-09T20:56:23.472Z,19.40
2022-10-09T20:58:50.212Z,19.40
2022-10-09T21:01:17.267Z,19.40
2022-10-09T21:03:43.987Z,19.40
2022-10-09T21:06:12.154Z,19.40
2022-10-09T21:08:38.872Z,19.40
2022-10-09T21:11:06.980Z,19.40
2022-10-09T21:13:34.424Z,19.40
2022-10-09T21:16:04.795Z,19.40
2022-10-09T21:18:31.567Z,19.40
2022-10-09T21:21:02.619Z,19.40
2022-10-09T21:23:29.258Z,19.40
2022-10-09T21:25:56.022Z,19.40
2022-10-09T21:28:23.215Z,19.40
2022-10-09T21:30:50.038Z,19.40
2022-10-09T21:33:17.079Z,19.40
2022-10-09T21:35:48.426Z,19.40
2022-10-09T21:38:16.543Z,19.40
2022-10-09T21:40:43.745Z,19.30
2022-10-09T21:43:13.552Z,19.30
2022-10-09T21:45:40.703Z,19.30
2022-10-09T21:48:07.572Z,19.30
2022-10-09T21:50:36.247Z,19.30
2022-10-09T21:53:03.240Z,19.30
2022-10-09T21:55:29.879Z,19.30
2022-10-09T21:57:56.582Z,19.30
2022-10-09T22:00:23.316Z,19.30
2022-10-09T22:02:50.189Z,19.30
2022-10-09T22:05:23.334Z,19.30
2022-10-09T22:07:50.046Z,19.30
2022-10-09T22:10:16.775Z,19.30
2022-10-09T22:12:43.429Z,19.20
2022-10-09T22:15:10.403Z,19.30
2022-10-09T22:17:37.031Z,19.30
2022-10-09T22:20:04.108Z,19.60
2022-10-09T22:22:31.597Z,19.30
2022-10-09T22:25:00.322Z,19.30
2022-10-09T22:27:26.965Z,19.30
2022-10-09T22:29:53.645Z,19.20
2022-10-09T22:32:20.361Z,19.20
2022-10-09T22:34:49.531Z,19.20
2022-10-09T22:37:16.206Z,19.20
2022-10-09T22:39:42.843Z,19.60
2022-10-09T22:42:09.488Z,19.20
2022-10-09T22:44:36.156Z,19.20
2022-10-09T22:47:02.788Z,19.30
2022-10-09T22:49:29.523Z,19.30
2022-10-09T22:51:57.995Z,19.50
2022-10-09T22:54:24.817Z,19.30
2022-10-09T22:56:51.435Z,19.30
2022-10-09T22:59:18.257Z,19.40
2022-10-09T23:01:48.420Z,19.90
2022-10-09T23:04:16.612Z,19.60
2022-10-09T23:06:44.334Z,19.60
2022-10-09T23:09:12.113Z,19.60
2022-10-09T23:11:38.757Z,19.60
2022-10-09T23:14:05.742Z,19.60
2022-10-09T23:16:32.503Z,19.60
2022-10-09T23:19:05.505Z,19.60
2022-10-09T23:21:33.663Z,19.60
2022-10-09T23:24:00.338Z,19.50
2022-10-09T23:26:28.338Z,19.50
2022-10-09T23:28:56.106Z,19.50
2022-10-09T23:31:23.300Z,19.50
2022-10-09T23:33:49.922Z,19.50
2022-10-09T23:36:18.016Z,19.50
2022-10-09T23:38:44.901Z,19.40
2022-10-09T23:41:13.297Z,19.50
2022-10-09T23:43:40.659Z,19.40
2022-10-09T23:46:08.325Z,19.40
2022-10-09T23:48:34.938Z,19.40
2022-10-09T23:51:01.756Z,19.40
2022-10-09T23:53:28.431Z,19.40
2022-10-09T23:55:55.131Z,19.60
2022-10-09T23:58:22.089Z,19.40
